createdAt,value
2022-08-23T00:02:27.698Z,94011.34
2022-08-23T00:05:08.079Z,94010.53
2022-08-23T00:07:39.654Z,94012.44
2022-08-23T00:10:09.169Z,94008.91
2022-08-23T00:12:36.889Z,94009.72
2022-08-23T00:15:05.321Z,94013.53
2022-08-23T00:17:34.316Z,94008.41
2022-08-23T00:20:03.102Z,94013.00
2022-08-23T00:22:30.786Z,94007.88
2022-08-23T00:25:00.049Z,94007.06
2022-08-23T00:27:27.916Z,94001.59
2022-08-23T00:29:56.573Z,94006.22
2022-08-23T00:32:25.901Z,94005.44
2022-08-23T00:34:53.977Z,94007.31
2022-08-23T00:37:21.959Z,94005.66
2022-08-23T00:39:49.954Z,94004.88
2022-08-23T00:42:49.366Z,94004.06
2022-08-23T00:45:36.528Z,93999.72
2022-08-23T00:48:04.922Z,93999.72
2022-08-23T00:50:35.057Z,93998.09
2022-08-23T00:53:05.175Z,94002.72
2022-08-23T00:55:32.913Z,93999.19
2022-08-23T00:58:02.396Z,93997.56
2022-08-23T01:00:30.747Z,93999.47
2022-08-23T01:02:58.802Z,93994.31
2022-08-23T01:05:28.968Z,93997.63
2022-08-23T01:07:57.070Z,94000.63
2022-08-23T01:10:27.774Z,93997.91
2022-08-23T01:12:58.257Z,93997.38
2022-08-23T01:15:28.676Z,93998.47
2022-08-23T01:17:58.407Z,94009.34
2022-08-23T01:20:27.002Z,94003.66
2022-08-23T01:22:57.798Z,94009.91
2022-08-23T01:25:28.022Z,94000.13
2022-08-23T01:27:57.335Z,94006.66
2022-08-23T01:30:43.464Z,94002.63
2022-08-23T01:33:31.682Z,94004.50
2022-08-23T01:36:19.920Z,94001.78
2022-08-23T01:38:47.670Z,94005.59
2022-08-23T01:41:17.076Z,94009.44
2022-08-23T01:43:44.767Z,94005.88
2022-08-23T01:46:13.819Z,94012.16
2022-08-23T01:48:41.741Z,94015.13
2022-08-23T01:51:09.722Z,94011.63
2022-08-23T01:53:37.480Z,94012.72
2022-08-23T01:56:05.364Z,94022.25
2022-08-23T01:58:34.576Z,94014.91
2022-08-23T02:01:04.418Z,94021.97
2022-08-23T02:03:32.305Z,94022.53
2022-08-23T02:06:00.228Z,94022.28
2022-08-23T02:08:45.573Z,94019.03
2022-08-23T02:11:15.040Z,94026.13
2022-08-23T02:13:44.354Z,94021.47
2022-08-23T02:16:15.000Z,94025.00
2022-08-23T02:18:43.470Z,94032.34
2022-08-23T02:21:11.178Z,94033.97
2022-08-23T02:23:38.854Z,94032.06
2022-08-23T02:26:06.988Z,94029.34
2022-08-23T02:28:34.661Z,94041.56
2022-08-23T02:31:03.775Z,94044.28
2022-08-23T02:33:33.354Z,94045.38
2022-08-23T02:36:01.474Z,94051.13
2022-08-23T02:38:29.145Z,94048.91
2022-08-23T02:41:00.747Z,94051.63
2022-08-23T02:43:29.034Z,94052.75
2022-08-23T02:45:56.730Z,94051.91
2022-08-23T02:48:25.830Z,94051.13
2022-08-23T02:50:53.529Z,94047.88
2022-08-23T02:53:21.194Z,94061.47
2022-08-23T02:55:49.013Z,94054.38
2022-08-23T02:58:16.721Z,94064.19
2022-08-23T03:00:47.617Z,94060.91
2022-08-23T03:03:15.637Z,94060.91
2022-08-23T03:05:44.845Z,94060.13
2022-08-23T03:08:13.048Z,94062.53
2022-08-23T03:10:43.176Z,94062.25
2022-08-23T03:13:11.951Z,94069.63
2022-08-23T03:15:39.670Z,94075.06
2022-08-23T03:18:08.029Z,94072.34
2022-08-23T03:20:35.849Z,94070.16
2022-08-23T03:23:05.028Z,94075.59
2022-08-23T03:25:32.733Z,94075.59
2022-08-23T03:28:04.588Z,94065.81
2022-08-23T03:30:33.723Z,94073.97
2022-08-23T03:33:01.533Z,94063.94
2022-08-23T03:35:29.386Z,94073.19
2022-08-23T03:37:57.797Z,94068.28
2022-08-23T03:40:26.885Z,94073.72
2022-08-23T03:42:54.609Z,94077.53
2022-08-23T03:45:22.301Z,94074.81
2022-08-23T03:47:50.016Z,94074.03
2022-08-23T03:50:17.780Z,94067.75
2022-08-23T03:52:45.597Z,94076.75
2022-08-23T03:55:13.341Z,94078.94
2022-08-23T03:57:42.497Z,94080.81
2022-08-23T04:00:11.861Z,94083.03
2022-08-23T04:02:40.078Z,94083.28
2022-08-23T04:05:26.398Z,94080.88
2022-08-23T04:07:55.075Z,94083.84
2022-08-23T04:10:22.944Z,94082.22
2022-08-23T04:12:52.731Z,94085.78
2022-08-23T04:15:20.663Z,94091.22
2022-08-23T04:17:48.383Z,94093.38
2022-08-23T04:20:16.042Z,94090.69
2022-08-23T04:22:45.910Z,94087.75
2022-08-23T04:25:33.057Z,94088.59
2022-08-23T04:28:03.509Z,94093.53
2022-08-23T04:30:32.243Z,94103.28
2022-08-23T04:33:01.706Z,94096.22
2022-08-23T04:35:29.840Z,94104.34
2022-08-23T04:37:57.692Z,94101.09
2022-08-23T04:40:43.055Z,94100.84
2022-08-23T04:43:12.885Z,94104.66
2022-08-23T04:45:40.762Z,94104.13
2022-08-23T04:48:11.697Z,94105.22
2022-08-23T04:50:40.002Z,94103.63
2022-08-23T04:53:07.769Z,94098.19
2022-08-23T04:55:36.560Z,94105.53
2022-08-23T04:58:04.483Z,94109.34
2022-08-23T05:00:33.810Z,94107.16
2022-08-23T05:03:01.658Z,94114.22
2022-08-23T05:05:29.375Z,94112.06
2022-08-23T05:07:57.190Z,94114.25
2022-08-23T05:10:24.966Z,94117.78
2022-08-23T05:12:52.665Z,94119.13
2022-08-23T05:15:20.370Z,94126.75
2022-08-23T05:17:49.574Z,94125.41
2022-08-23T05:20:17.293Z,94130.81
2022-08-23T05:22:45.129Z,94130.81
2022-08-23T05:25:12.947Z,94135.47
2022-08-23T05:27:40.677Z,94132.22
2022-08-23T05:30:09.062Z,94136.53
2022-08-23T05:32:43.192Z,94134.66
2022-08-23T05:35:12.775Z,94135.47
2022-08-23T05:37:40.510Z,94132.44
2022-08-23T05:40:09.530Z,94135.19
2022-08-23T05:42:38.614Z,94145.75
2022-08-23T05:45:08.005Z,94141.97
2022-08-23T05:47:35.709Z,94145.75
2022-08-23T05:50:03.450Z,94149.03
2022-08-23T05:52:32.688Z,94154.72
2022-08-23T05:55:00.393Z,94159.88
2022-08-23T05:57:28.079Z,94160.16
2022-08-23T05:59:55.824Z,94157.44
2022-08-23T06:02:24.779Z,94163.44
2022-08-23T06:04:56.787Z,94166.16
2022-08-23T06:07:25.116Z,94166.69
2022-08-23T06:09:55.717Z,94154.72
2022-08-23T06:12:23.550Z,94163.41
2022-08-23T06:14:51.542Z,94161.53
2022-08-23T06:17:20.512Z,94165.84
2022-08-23T06:19:48.269Z,94159.06
2022-08-23T06:22:16.681Z,94162.56
2022-08-23T06:24:45.017Z,94166.38
2022-08-23T06:27:14.174Z,94161.78
2022-08-23T06:29:41.922Z,94171.56
2022-08-23T06:32:09.908Z,94168.28
2022-08-23T06:34:38.185Z,94165.84
2022-08-23T06:37:06.903Z,94165.59
2022-08-23T06:39:37.516Z,94170.47
2022-08-23T06:42:17.662Z,94170.72
2022-08-23T06:44:56.365Z,94176.69
2022-08-23T06:47:24.064Z,94173.69
2022-08-23T06:49:57.904Z,94172.34
2022-08-23T06:52:27.257Z,94179.13
2022-08-23T06:54:55.465Z,94175.84
2022-08-23T06:57:25.582Z,94182.66
2022-08-23T06:59:53.333Z,94182.91
2022-08-23T07:02:22.647Z,94185.34
2022-08-23T07:04:54.076Z,94188.59
2022-08-23T07:07:22.326Z,94187.28
2022-08-23T07:09:50.065Z,94194.34
2022-08-23T07:12:19.859Z,94195.97
2022-08-23T07:14:47.618Z,94196.50
2022-08-23T07:17:15.281Z,94201.66
2022-08-23T07:19:44.487Z,94198.41
2022-08-23T07:22:12.240Z,94201.63
2022-08-23T07:24:40.030Z,94204.09
2022-08-23T07:27:09.529Z,94204.91
2022-08-23T07:29:37.286Z,94214.41
2022-08-23T07:32:05.324Z,94209.81
2022-08-23T07:34:33.163Z,94206.00
2022-08-23T07:37:02.562Z,94203.81
2022-08-23T07:39:31.698Z,94213.59
2022-08-23T07:42:00.336Z,94207.06
2022-08-23T07:44:29.088Z,94210.31
2022-08-23T07:46:57.641Z,94197.81
2022-08-23T07:49:29.417Z,94203.78
2022-08-23T07:51:58.705Z,94211.94
2022-08-23T07:54:28.787Z,94211.66
2022-08-23T07:56:56.533Z,94218.72
2022-08-23T07:59:24.859Z,94222.25
2022-08-23T08:01:52.663Z,94223.06
2022-08-23T08:04:20.482Z,94222.81
2022-08-23T08:07:00.196Z,94231.75
2022-08-23T08:09:39.150Z,94233.41
2022-08-23T08:12:06.887Z,94230.69
2022-08-23T08:14:36.314Z,94232.59
2022-08-23T08:17:04.995Z,94236.13
2022-08-23T08:19:32.790Z,94234.22
2022-08-23T08:22:00.544Z,94238.56
2022-08-23T08:24:28.254Z,94240.19
2022-08-23T08:26:57.415Z,94241.81
2022-08-23T08:29:25.137Z,94238.28
2022-08-23T08:31:54.402Z,94244.53
2022-08-23T08:34:22.474Z,94240.72
2022-08-23T08:36:51.915Z,94245.91
2022-08-23T08:39:24.790Z,94252.13
2022-08-23T08:42:04.514Z,94241.25
2022-08-23T08:44:38.967Z,94245.91
2022-08-23T08:47:09.282Z,94247.53
2022-08-23T08:49:39.392Z,94249.41
2022-08-23T08:52:12.455Z,94259.19
2022-08-23T08:54:42.125Z,94251.34
2022-08-23T08:57:15.335Z,94259.72
2022-08-23T08:59:48.840Z,94259.72
2022-08-23T09:02:31.818Z,94255.91
2022-08-23T09:05:01.712Z,94258.63
2022-08-23T09:07:31.467Z,94259.47
2022-08-23T09:10:07.378Z,94258.63
2022-08-23T09:12:40.708Z,94256.75
2022-08-23T09:15:16.494Z,94262.72
2022-08-23T09:17:45.369Z,94252.94
2022-08-23T09:20:14.888Z,94261.09
2022-08-23T09:22:44.144Z,94258.09
2022-08-23T09:25:12.219Z,94258.09
2022-08-23T09:27:42.973Z,94254.31
2022-08-23T09:30:11.807Z,94255.09
2022-08-23T09:32:41.239Z,94255.09
2022-08-23T09:35:13.185Z,94259.44
2022-08-23T09:37:59.424Z,94259.44
2022-08-23T09:40:33.203Z,94256.72
2022-08-23T09:43:13.157Z,94259.44
2022-08-23T09:45:56.026Z,94261.91
2022-08-23T09:48:38.442Z,94267.34
2022-08-23T09:51:11.201Z,94261.91
2022-08-23T09:53:42.121Z,94276.31
2022-08-23T09:56:13.060Z,94266.25
2022-08-23T09:58:42.913Z,94261.63
2022-08-23T10:01:13.667Z,94259.72
2022-08-23T10:03:42.089Z,94258.91
2022-08-23T10:06:10.002Z,94265.97
2022-08-23T10:08:43.242Z,94257.81
2022-08-23T10:11:15.251Z,94262.97
2022-08-23T10:13:45.531Z,94253.19
2022-08-23T10:16:19.745Z,94253.19
2022-08-23T10:18:52.695Z,94254.81
2022-08-23T10:21:24.333Z,94254.81
2022-08-23T10:23:58.394Z,94254.53
2022-08-23T10:26:27.818Z,94261.88
2022-08-23T10:29:17.745Z,94258.06
2022-08-23T10:31:49.086Z,94254.28
2022-08-23T10:34:25.478Z,94245.28
2022-08-23T10:37:04.880Z,94262.44
2022-08-23T10:39:32.782Z,94259.72
2022-08-23T10:42:03.770Z,94255.91
2022-08-23T10:44:35.716Z,94244.19
2022-08-23T10:47:12.153Z,94245.81
2022-08-23T10:49:41.221Z,94243.09
2022-08-23T10:52:11.029Z,94259.16
2022-08-23T10:54:46.801Z,94253.72
2022-08-23T10:57:16.028Z,94250.16
2022-08-23T10:59:45.269Z,94254.50
2022-08-23T11:02:19.689Z,94242.81
2022-08-23T11:04:50.186Z,94246.34
2022-08-23T11:07:18.441Z,94249.91
2022-08-23T11:09:55.967Z,94241.72
2022-08-23T11:12:25.979Z,94241.72
2022-08-23T11:15:10.047Z,94239.00
2022-08-23T11:17:42.954Z,94241.44
2022-08-23T11:20:11.868Z,94242.25
2022-08-23T11:23:21.322Z,94234.09
2022-08-23T11:25:49.034Z,94239.53
2022-08-23T11:28:39.621Z,94230.56
2022-08-23T11:31:26.497Z,94242.25
2022-08-23T11:33:55.121Z,94240.38
2022-08-23T11:36:23.931Z,94238.44
2022-08-23T11:39:07.004Z,94246.63
2022-08-23T11:41:35.758Z,94242.25
2022-08-23T11:44:24.339Z,94245.81
2022-08-23T11:47:07.387Z,94246.63
2022-08-23T11:50:03.850Z,94242.00
2022-08-23T11:53:05.136Z,94246.34
2022-08-23T11:56:05.442Z,94245.50
2022-08-23T11:58:46.267Z,94250.69
2022-08-23T12:01:16.854Z,94251.50
2022-08-23T12:03:56.821Z,94245.25
2022-08-23T12:06:40.838Z,94249.88
2022-08-23T12:09:12.556Z,94243.31
2022-08-23T12:12:19.927Z,94240.59
2022-08-23T12:14:53.714Z,94247.66
2022-08-23T12:17:56.847Z,94239.50
2022-08-23T12:20:32.486Z,94234.91
2022-08-23T12:23:19.353Z,94234.91
2022-08-23T12:25:47.141Z,94237.63
2022-08-23T12:28:33.669Z,94231.09
2022-08-23T12:31:07.834Z,94241.13
2022-08-23T12:33:41.922Z,94226.47
2022-08-23T12:36:16.452Z,94236.25
2022-08-23T12:38:49.999Z,94232.72
2022-08-23T12:41:20.228Z,94233.53
2022-08-23T12:43:56.099Z,94227.28
2022-08-23T12:46:39.965Z,94227.28
2022-08-23T12:49:08.562Z,94222.66
2022-08-23T12:51:44.554Z,94223.44
2022-08-23T12:54:16.209Z,94225.06
2022-08-23T12:56:46.387Z,94225.91
2022-08-23T12:59:34.066Z,94221.56
2022-08-23T13:02:02.184Z,94213.41
2022-08-23T13:04:30.014Z,94223.97
2022-08-23T13:07:01.871Z,94217.75
2022-08-23T13:09:30.911Z,94222.09
2022-08-23T13:11:59.015Z,94215.81
2022-08-23T13:14:29.491Z,94213.94
2022-08-23T13:16:59.541Z,94213.09
2022-08-23T13:19:29.874Z,94211.22
2022-08-23T13:22:12.344Z,94216.66
2022-08-23T13:24:41.077Z,94217.44
2022-08-23T13:27:17.702Z,94217.44
2022-08-23T13:29:52.678Z,94212.00
2022-08-23T13:32:31.213Z,94214.72
2022-08-23T13:35:26.968Z,94206.56
2022-08-23T13:37:58.335Z,94204.66
2022-08-23T13:40:27.639Z,94199.22
2022-08-23T13:42:58.834Z,94193.50
2022-08-23T13:45:28.479Z,94196.50
2022-08-23T13:47:57.849Z,94197.31
2022-08-23T13:50:26.833Z,94198.13
2022-08-23T13:53:13.935Z,94198.97
2022-08-23T13:55:44.797Z,94197.31
2022-08-23T13:58:12.864Z,94193.50
2022-08-23T14:00:40.777Z,94195.94
2022-08-23T14:03:22.727Z,94192.69
2022-08-23T14:05:50.500Z,94193.50
2022-08-23T14:08:28.133Z,94184.53
2022-08-23T14:10:55.891Z,94198.13
2022-08-23T14:13:23.671Z,94187.25
2022-08-23T14:15:56.718Z,94189.13
2022-08-23T14:18:26.440Z,94180.97
2022-08-23T14:20:54.342Z,94184.53
2022-08-23T14:23:23.550Z,94189.13
2022-08-23T14:25:52.594Z,94181.81
2022-08-23T14:28:20.385Z,94184.53
2022-08-23T14:30:48.978Z,94176.38
2022-08-23T14:33:16.742Z,94179.91
2022-08-23T14:35:45.030Z,94194.31
2022-08-23T14:38:15.088Z,94187.25
2022-08-23T14:40:44.635Z,94178.00
2022-08-23T14:43:12.386Z,94188.06
2022-08-23T14:45:40.693Z,94185.88
2022-08-23T14:48:08.510Z,94185.06
2022-08-23T14:50:36.301Z,94185.06
2022-08-23T14:53:04.135Z,94185.06
2022-08-23T14:55:31.983Z,94192.13
2022-08-23T14:58:01.226Z,94185.06
2022-08-23T15:00:28.970Z,94188.59
2022-08-23T15:02:56.862Z,94187.78
2022-08-23T15:05:24.738Z,94186.16
2022-08-23T15:07:52.701Z,94187.78
2022-08-23T15:13:27.092Z,94185.59
2022-08-23T15:15:57.535Z,94183.38
2022-08-23T15:18:25.322Z,94181.22
2022-08-23T15:20:53.018Z,94182.84
2022-08-23T15:23:20.990Z,94179.59
2022-08-23T15:25:49.997Z,94181.47
2022-08-23T15:28:20.165Z,94184.22
2022-08-23T15:30:48.864Z,94174.16
2022-08-23T15:33:16.589Z,94180.66
2022-08-23T15:35:45.471Z,94185.03
2022-08-23T15:38:13.215Z,94176.03
2022-08-23T15:40:40.914Z,94179.31
2022-08-23T15:43:08.582Z,94175.50
2022-08-23T15:45:37.701Z,94180.94
2022-08-23T15:48:07.538Z,94177.13
2022-08-23T15:50:37.021Z,94188.53
2022-08-23T15:53:05.710Z,94188.53
2022-08-23T15:55:33.659Z,94183.91
2022-08-23T15:58:01.386Z,94181.16
2022-08-23T16:00:29.295Z,94185.53
2022-08-23T16:03:19.863Z,94182.00
2022-08-23T16:05:47.556Z,94175.47
2022-08-23T16:08:18.742Z,94187.97
2022-08-23T16:10:46.765Z,94177.91
2022-08-23T16:13:14.479Z,94178.72
2022-08-23T16:15:42.261Z,94182.25
2022-08-23T16:18:11.653Z,94181.16
2022-08-23T16:20:39.345Z,94173.00
2022-08-23T16:23:07.099Z,94175.72
2022-08-23T16:25:34.936Z,94175.72
2022-08-23T16:28:02.722Z,94173.00
2022-08-23T16:30:30.639Z,94176.50
2022-08-23T16:32:58.480Z,94181.97
2022-08-23T16:35:27.637Z,94177.34
2022-08-23T16:37:55.538Z,94176.50
2022-08-23T16:40:23.427Z,94177.03
2022-08-23T16:42:52.325Z,94178.97
2022-08-23T16:45:25.175Z,94180.59
2022-08-23T16:47:53.911Z,94183.84
2022-08-23T16:50:21.802Z,94186.53
2022-08-23T16:52:50.982Z,94185.41
2022-08-23T16:55:18.800Z,94184.25
2022-08-23T16:57:46.665Z,94182.03
2022-08-23T17:00:15.486Z,94190.41
2022-08-23T17:02:43.841Z,94183.53
2022-08-23T17:05:13.415Z,94187.03
2022-08-23T17:07:41.201Z,94185.91
2022-08-23T17:10:11.795Z,94176.84
2022-08-23T17:12:42.642Z,94186.63
2022-08-23T17:15:21.303Z,94186.59
2022-08-23T17:17:49.282Z,94187.34
2022-08-23T17:20:17.316Z,94182.94
2022-08-23T17:22:45.122Z,94190.25
2022-08-23T17:25:16.686Z,94190.50
2022-08-23T17:27:46.442Z,94191.84
2022-08-23T17:30:16.357Z,94189.38
2022-08-23T17:32:44.228Z,94197.75
2022-08-23T17:35:14.956Z,94193.66
2022-08-23T17:37:43.118Z,94199.63
2022-08-23T17:40:12.587Z,94202.88
2022-08-23T17:42:43.084Z,94204.22
2022-08-23T17:45:12.217Z,94207.47
2022-08-23T17:47:39.947Z,94206.88
2022-08-23T17:50:08.062Z,94205.50
2022-08-23T17:52:35.806Z,94215.81
2022-08-23T17:55:03.682Z,94215.25
2022-08-23T17:57:32.383Z,94220.72
2022-08-23T18:00:01.896Z,94222.03
2022-08-23T18:02:29.647Z,94220.94
2022-08-23T18:04:57.523Z,94223.38
2022-08-23T18:07:25.310Z,94221.16
2022-08-23T18:09:53.162Z,94233.69
2022-08-23T18:12:21.343Z,94227.44
2022-08-23T18:14:49.014Z,94234.53
2022-08-23T18:17:18.122Z,94240.78
2022-08-23T18:19:47.009Z,94235.06
2022-08-23T18:22:14.865Z,94241.03
2022-08-23T18:24:42.774Z,94241.03
2022-08-23T18:27:28.145Z,94245.91
2022-08-23T18:29:56.358Z,94249.72
2022-08-23T18:32:26.261Z,94248.03
2022-08-23T18:34:53.985Z,94249.13
2022-08-23T18:37:23.141Z,94257.84
2022-08-23T18:39:51.068Z,94257.56
2022-08-23T18:42:18.861Z,94256.78
2022-08-23T18:44:46.671Z,94260.28
2022-08-23T18:47:14.628Z,94263.03
2022-08-23T18:49:43.874Z,94261.91
2022-08-23T18:52:12.517Z,94270.94
2022-08-23T18:54:40.320Z,94272.56
2022-08-23T18:57:08.126Z,94273.34
2022-08-23T18:59:44.398Z,94277.19
2022-08-23T19:02:12.777Z,94281.31
2022-08-23T19:04:40.664Z,94280.97
2022-08-23T19:07:09.839Z,94287.22
2022-08-23T19:09:38.172Z,94299.81
2022-08-23T19:12:06.616Z,94299.00
2022-08-23T19:14:35.718Z,94298.16
2022-08-23T19:17:03.985Z,94295.41
2022-08-23T19:19:31.845Z,94293.78
2022-08-23T19:21:59.547Z,94302.25
2022-08-23T19:24:28.683Z,94294.91
2022-08-23T19:26:56.753Z,94297.91
2022-08-23T19:29:24.514Z,94301.72
2022-08-23T19:31:52.736Z,94303.94
2022-08-23T19:34:22.189Z,94305.03
2022-08-23T19:37:00.272Z,94302.84
2022-08-23T19:39:30.593Z,94308.81
2022-08-23T19:41:58.345Z,94307.19
2022-08-23T19:44:26.025Z,94318.94
2022-08-23T19:46:53.721Z,94313.47
2022-08-23T19:49:22.283Z,94321.94
2022-08-23T19:51:50.125Z,94328.22
2022-08-23T19:54:17.846Z,94326.59
2022-08-23T19:56:48.442Z,94327.69
2022-08-23T19:59:17.233Z,94327.97
2022-08-23T20:01:45.414Z,94328.78
2022-08-23T20:04:13.447Z,94335.88
2022-08-23T20:06:41.246Z,94340.00
2022-08-23T20:09:09.401Z,94344.94
2022-08-23T20:11:37.181Z,94345.47
2022-08-23T20:14:06.790Z,94331.31
2022-08-23T20:16:36.426Z,94335.66
2022-08-23T20:19:06.170Z,94331.56
2022-08-23T20:21:33.857Z,94340.28
2022-08-23T20:24:04.207Z,94343.00
2022-08-23T20:26:33.897Z,94350.38
2022-08-23T20:29:02.122Z,94348.75
2022-08-23T20:31:33.123Z,94345.19
2022-08-23T20:34:01.023Z,94344.09
2022-08-23T20:36:29.020Z,94349.56
2022-08-23T20:38:58.303Z,94339.47
2022-08-23T20:41:26.258Z,94344.09
2022-08-23T20:43:55.439Z,94339.75
2022-08-23T20:46:23.203Z,94339.75
2022-08-23T20:48:53.141Z,94343.56
2022-08-23T20:51:20.925Z,94345.78
2022-08-23T20:53:48.765Z,94349.63
2022-08-23T20:56:16.657Z,94341.19
2022-08-23T20:58:44.575Z,94347.47
2022-08-23T21:01:14.221Z,94346.41
2022-08-23T21:03:42.385Z,94352.69
2022-08-23T21:06:16.550Z,94355.41
2022-08-23T21:08:48.077Z,94355.09
2022-08-23T21:11:16.366Z,94350.75
2022-08-23T21:13:44.378Z,94357.03
2022-08-23T21:16:12.162Z,94354.31
2022-08-23T21:18:40.114Z,94342.56
2022-08-23T21:21:07.959Z,94345.84
2022-08-23T21:23:37.309Z,94342.56
2022-08-23T21:26:05.414Z,94341.47
2022-08-23T21:28:33.190Z,94343.38
2022-08-23T21:31:05.558Z,94334.38
2022-08-23T21:33:36.718Z,94335.47
2022-08-23T21:36:08.327Z,94326.78
2022-08-23T21:38:37.366Z,94333.34
2022-08-23T21:41:07.506Z,94329.81
2022-08-23T21:43:37.496Z,94325.16
2022-08-23T21:46:07.317Z,94330.34
2022-08-23T21:48:35.592Z,94324.56
2022-08-23T21:51:03.269Z,94330.03
2022-08-23T21:53:32.141Z,94330.34
2022-08-23T21:56:01.209Z,94325.97
2022-08-23T21:58:29.027Z,94331.19
2022-08-23T22:00:56.717Z,94332.88
2022-08-23T22:03:24.493Z,94324.19
2022-08-23T22:05:52.662Z,94335.16
2022-08-23T22:08:20.380Z,94340.94
2022-08-23T22:10:57.269Z,94326.00
2022-08-23T22:13:28.565Z,94327.94
2022-08-23T22:15:56.406Z,94322.81
2022-08-23T22:18:24.185Z,94323.38
2022-08-23T22:20:51.927Z,94318.75
2022-08-23T22:23:19.616Z,94320.41
2022-08-23T22:25:47.349Z,94320.16
2022-08-23T22:28:15.162Z,94327.25
2022-08-23T22:30:44.358Z,94321.28
2022-08-23T22:33:12.984Z,94310.97
2022-08-23T22:35:40.660Z,94317.50
2022-08-23T22:38:14.044Z,94315.31
2022-08-23T22:40:48.300Z,94314.81
2022-08-23T22:43:16.656Z,94316.47
2022-08-23T22:45:52.550Z,94316.22
2022-08-23T22:48:20.448Z,94316.78
2022-08-23T22:50:48.509Z,94312.69
2022-08-23T22:53:16.329Z,94315.19
2022-08-23T22:55:44.290Z,94315.47
2022-08-23T22:58:11.957Z,94305.94
2022-08-23T23:00:42.102Z,94318.22
2022-08-23T23:03:11.502Z,94313.06
2022-08-23T23:05:39.266Z,94311.69
2022-08-23T23:08:24.330Z,94309.28
2022-08-23T23:10:52.120Z,94305.19
2022-08-23T23:13:19.841Z,94301.63
2022-08-23T23:15:47.473Z,94304.38
2022-08-23T23:18:16.650Z,94305.47
2022-08-23T23:20:43.415Z,94301.09
2022-08-23T23:23:13.386Z,94299.78
2022-08-23T23:25:41.362Z,94302.78
2022-08-23T23:28:09.103Z,94301.41
2022-08-23T23:30:36.967Z,94302.50
2022-08-23T23:33:04.936Z,94299.25
2022-08-23T23:35:34.348Z,94300.34
2022-08-23T23:38:02.440Z,94302.53
2022-08-23T23:40:30.313Z,94299.81
2022-08-23T23:42:57.997Z,94294.66
2022-08-23T23:45:25.694Z,94297.38
2022-08-23T23:47:53.386Z,94291.41
2022-08-23T23:50:21.348Z,94296.84
2022-08-23T23:52:50.582Z,94290.88
2022-08-23T23:55:19.712Z,94293.84
2022-08-23T23:57:47.543Z,94294.94
